Whalan, Minnesota
Current Conditions -  °F | °C
As of 10:16 AM on Thursday 30 Oct 2014 (Local Time) from KFKA Reporting Station
Overcast Overcast  
Wind Chill: 35°   Ceiling: 8000
Heat Index: 38°   Visibility: 10mi
Dew Point: 34°   Wind: 5mph
Humidity: 84%   Direction: 200°SSW
Pressure: 30.07"   Gusts: NA
Location:  43.7165°N, 91.9871°W
Report Text: KFKA 301516Z AUTO 20004KT 10SM SCT060 OVC080 04/01 A3007 RMK AO2 T00360011
Loading
Personal Weather Stations






























Interactive Weather Map
Tropical Storm Tracking
New forecast layout! Learn more

10-Day Weather Forecast

Advertisements
Track Severe Weather on mobile